Time;durP1;ratioP1;P1;durP2;ratioP2;P2;SDS_P1;SDS_P2;PMS_P1;PMS_P2;Temp;Humidity;BMP_temperature;BMP_pressure;BME280_temperature;BME280_humidity;BME280_pressure;Samples;Min_cycle;Max_cycle;Signal;HPM_P1;HPM_P2
2022/05/15 00:02:01;;;;;;;8.93;2.20;;;14.00;99.90;;;;;;5015082;28;20097;-63
2022/05/15 00:04:27;;;;;;;5.20;1.85;;;13.90;99.20;;;;;;5029752;28;20059;-63
2022/05/15 00:06:52;;;;;;;5.47;2.00;;;13.80;99.90;;;;;;5011755;28;20075;-63
2022/05/15 00:09:18;;;;;;;6.50;2.10;;;13.80;99.90;;;;;;5010267;28;20361;-63
2022/05/15 00:11:43;;;;;;;5.63;1.83;;;13.70;99.90;;;;;;5008984;28;20086;-63
2022/05/15 00:14:09;;;;;;;6.88;2.10;;;13.70;99.90;;;;;;5010195;28;20022;-63
2022/05/15 00:16:35;;;;;;;5.70;2.00;;;13.70;99.30;;;;;;5010123;28;20026;-63
2022/05/15 00:19:02;;;;;;;6.18;1.90;;;13.60;99.90;;;;;;5010017;28;20077;-65
2022/05/15 00:21:27;;;;;;;7.75;2.20;;;13.60;99.90;;;;;;5005355;28;20038;-63
2022/05/15 00:23:53;;;;;;;8.45;2.10;;;13.60;99.90;;;;;;5006938;28;20249;-63
2022/05/15 00:26:19;;;;;;;6.55;2.28;;;13.70;99.90;;;;;;5005813;28;20061;-63
2022/05/15 00:28:44;;;;;;;8.88;2.40;;;13.40;99.90;;;;;;5005771;28;20029;-63
2022/05/15 00:31:10;;;;;;;6.15;2.35;;;13.40;99.90;;;;;;5005342;28;20249;-63
2022/05/15 00:33:36;;;;;;;5.80;2.20;;;13.40;99.90;;;;;;5006707;28;20018;-63
2022/05/15 00:36:03;;;;;;;7.20;2.55;;;13.40;99.90;;;;;;5006668;28;20037;-63
2022/05/15 00:38:29;;;;;;;11.63;2.90;;;13.30;99.90;;;;;;5006837;28;20030;-64
2022/05/15 00:40:55;;;;;;;10.75;2.53;;;13.30;99.90;;;;;;5003536;28;20064;-64
2022/05/15 00:43:43;;;;;;;6.03;2.42;;;13.20;99.90;;;;;;5005455;28;20025;-63
2022/05/15 00:46:13;;;;;;;9.32;2.85;;;13.20;99.90;;;;;;4990848;28;20022;-63
2022/05/15 00:48:39;;;;;;;9.00;2.78;;;13.10;99.90;;;;;;5009036;28;20017;-64
2022/05/15 00:51:15;;;;;;;8.30;2.75;;;13.00;99.90;;;;;;5025066;28;20317;-63
2022/05/15 00:53:41;;;;;;;7.43;2.85;;;12.90;99.90;;;;;;5025003;28;20301;-63
2022/05/15 00:56:09;;;;;;;8.30;3.03;;;12.90;99.90;;;;;;5025925;28;20064;-63
2022/05/15 00:58:39;;;;;;;9.60;2.97;;;12.80;99.90;;;;;;5026112;28;20105;-63
2022/05/15 01:01:05;;;;;;;11.75;2.90;;;12.80;99.90;;;;;;5008443;28;20301;-64
2022/05/15 01:03:31;;;;;;;5.55;2.25;;;12.70;99.90;;;;;;4992173;28;20395;-63
2022/05/15 01:05:58;;;;;;;11.05;2.40;;;12.70;99.90;;;;;;5024800;28;20022;-63
2022/05/15 01:08:27;;;;;;;7.95;2.60;;;12.60;99.90;;;;;;5024669;28;20025;-63
2022/05/15 01:10:56;;;;;;;4.40;1.88;;;12.60;99.90;;;;;;5024738;28;20030;-63
2022/05/15 01:13:24;;;;;;;4.82;2.00;;;12.40;99.90;;;;;;5025801;28;20076;-63
2022/05/15 01:15:50;;;;;;;7.47;2.10;;;12.30;99.90;;;;;;5024629;28;20048;-63
2022/05/15 01:18:21;;;;;;;8.05;2.25;;;12.30;99.90;;;;;;5025440;28;20033;-63
2022/05/15 01:20:47;;;;;;;;;;;12.40;99.90;;;;;;5026115;28;20033;-64
2022/05/15 01:23:13;;;;;;;4.50;1.70;;;12.50;99.90;;;;;;5023967;28;19911;-64
2022/05/15 01:25:39;;;;;;;5.57;1.67;;;12.40;99.90;;;;;;5024502;28;20029;-64
2022/05/15 01:28:10;;;;;;;4.32;1.70;;;12.40;99.90;;;;;;5025461;28;20081;-63
2022/05/15 01:30:39;;;;;;;4.18;1.73;;;12.40;99.90;;;;;;5024115;28;20085;-63
2022/05/15 01:33:08;;;;;;;8.63;1.90;;;12.40;99.90;;;;;;5023757;28;20093;-63
2022/05/15 01:35:34;;;;;;;7.68;1.98;;;12.30;99.90;;;;;;5024265;28;20064;-63
2022/05/15 01:38:00;;;;;;;6.18;2.10;;;12.30;99.90;;;;;;5023968;28;20024;-63
2022/05/15 01:40:26;;;;;;;4.97;1.67;;;12.20;99.90;;;;;;5022459;28;20022;-64
2022/05/15 01:42:52;;;;;;;5.35;2.03;;;12.30;99.90;;;;;;5025069;28;20089;-63
2022/05/15 01:45:18;;;;;;;6.53;2.30;;;12.40;99.90;;;;;;5024043;28;20305;-63
2022/05/15 01:47:43;;;;;;;5.38;1.80;;;12.40;99.90;;;;;;5023414;28;20076;-64
2022/05/15 01:50:13;;;;;;;4.70;1.70;;;12.50;99.90;;;;;;5025145;28;20274;-63
2022/05/15 01:52:40;;;;;;;3.63;1.80;;;12.50;99.90;;;;;;5025024;28;20261;-64
2022/05/15 01:55:06;;;;;;;5.50;1.65;;;12.70;99.90;;;;;;5024010;28;20213;-64
2022/05/15 01:57:31;;;;;;;3.63;1.52;;;12.80;99.90;;;;;;5024692;28;20057;-64
2022/05/15 01:59:57;;;;;;;3.03;1.60;;;12.90;99.90;;;;;;5024899;28;20038;-63
2022/05/15 02:02:22;;;;;;;5.53;1.45;;;12.80;99.90;;;;;;5023336;28;20022;-64
2022/05/15 02:04:49;;;;;;;5.35;1.50;;;12.70;99.90;;;;;;5024794;28;20022;-63
2022/05/15 02:07:14;;;;;;;5.20;1.75;;;12.40;99.90;;;;;;5024666;28;20328;-64
2022/05/15 02:09:40;;;;;;;6.20;1.92;;;12.30;99.90;;;;;;5023740;28;20017;-63
2022/05/15 02:12:07;;;;;;;4.50;1.60;;;12.40;99.90;;;;;;5024754;28;20205;-64
2022/05/15 02:14:33;;;;;;;3.30;1.80;;;12.60;99.90;;;;;;5023583;28;20025;-63
2022/05/15 02:16:58;;;;;;;4.85;1.80;;;12.70;99.90;;;;;;5024514;28;20093;-63
2022/05/15 02:19:24;;;;;;;5.57;1.90;;;12.80;99.90;;;;;;5024055;28;20225;-63
2022/05/15 02:21:50;;;;;;;5.97;1.80;;;12.80;99.90;;;;;;5024487;28;20064;-63
2022/05/15 02:24:15;;;;;;;3.38;1.70;;;12.80;99.90;;;;;;5024481;28;20068;-64
2022/05/15 02:26:41;;;;;;;6.65;1.67;;;12.80;99.90;;;;;;5024495;28;20309;-63
2022/05/15 02:29:08;;;;;;;8.68;1.83;;;12.70;99.90;;;;;;5023120;28;20021;-63
2022/05/15 02:31:34;;;;;;;3.00;1.35;;;12.50;99.90;;;;;;5024214;28;20026;-63
2022/05/15 02:34:00;;;;;;;4.07;1.40;;;12.20;99.90;;;;;;5023238;28;20356;-63
2022/05/15 02:36:27;;;;;;;6.30;2.10;;;12.20;99.90;;;;;;5024403;28;20022;-64
2022/05/15 02:38:53;;;;;;;4.30;1.80;;;12.20;99.90;;;;;;5024126;28;20069;-63
2022/05/15 02:41:18;;;;;;;3.83;1.65;;;12.10;99.90;;;;;;5021829;28;20272;-64
2022/05/15 02:43:44;;;;;;;3.88;1.60;;;12.00;99.90;;;;;;5023479;28;20190;-63
2022/05/15 02:46:10;;;;;;;6.97;1.80;;;11.90;99.90;;;;;;5023810;28;20026;-63
2022/05/15 02:51:21;;;;;;;1.50;1.20;;;11.80;99.90;;;;;;5009626;28;20089;-63
2022/05/15 02:53:47;;;;;;;5.25;1.70;;;11.80;99.90;;;;;;5023983;28;20072;-64
2022/05/15 02:56:17;;;;;;;3.10;1.42;;;11.80;99.90;;;;;;5024079;28;20317;-63
2022/05/15 02:58:44;;;;;;;5.05;1.55;;;11.80;99.90;;;;;;5022747;28;20331;-63
2022/05/15 03:01:10;;;;;;;3.60;1.60;;;11.90;99.90;;;;;;5022387;28;20088;-63
2022/05/15 03:03:36;;;;;;;5.68;1.50;;;11.90;99.90;;;;;;5006153;28;20052;-64
2022/05/15 03:06:04;;;;;;;3.72;1.63;;;11.90;99.90;;;;;;5006665;28;20049;-63
2022/05/15 03:08:33;;;;;;;4.32;1.60;;;11.90;99.90;;;;;;5022846;28;20312;-63
2022/05/15 03:10:59;;;;;;;3.50;1.50;;;12.00;99.90;;;;;;5022851;28;20020;-63
2022/05/15 03:13:24;;;;;;;2.70;1.42;;;12.10;99.90;;;;;;5022752;28;20208;-63
2022/05/15 03:15:50;;;;;;;3.70;1.20;;;12.10;99.90;;;;;;5023988;28;20095;-63
2022/05/15 03:18:16;;;;;;;3.30;1.33;;;12.20;99.90;;;;;;5022350;28;20140;-63
2022/05/15 03:20:42;;;;;;;6.00;1.48;;;12.30;99.90;;;;;;5022863;28;20371;-63
2022/05/15 03:23:08;;;;;;;5.47;1.58;;;12.30;99.90;;;;;;5022253;28;20025;-63
2022/05/15 03:25:34;;;;;;;3.10;1.42;;;12.40;99.90;;;;;;5022805;28;20026;-63
2022/05/15 03:28:01;;;;;;;1.65;1.50;;;12.30;99.90;;;;;;5022721;28;20029;-63
2022/05/15 03:30:27;;;;;;;4.85;1.60;;;12.30;99.90;;;;;;5005506;28;20033;-63
2022/05/15 03:32:52;;;;;;;1.90;1.45;;;12.30;99.90;;;;;;5023379;28;20056;-63
2022/05/15 03:35:19;;;;;;;1.90;1.63;;;12.30;99.90;;;;;;5006323;28;20021;-64
2022/05/15 03:37:44;;;;;;;3.67;1.48;;;12.30;99.90;;;;;;5023735;28;20089;-63
2022/05/15 03:40:11;;;;;;;2.10;1.40;;;12.10;99.90;;;;;;5022306;28;20034;-64
2022/05/15 03:42:37;;;;;;;2.65;1.95;;;12.20;99.90;;;;;;5004167;28;20030;-64
2022/05/15 03:45:04;;;;;;;2.85;1.48;;;12.20;99.90;;;;;;5023611;28;20125;-64
2022/05/15 03:47:30;;;;;;;2.90;1.42;;;12.20;99.90;;;;;;5009451;28;20033;-63
2022/05/15 03:50:01;;;;;;;6.38;1.67;;;12.10;99.90;;;;;;5002356;28;20274;-63
2022/05/15 03:52:27;;;;;;;3.97;1.40;;;12.00;99.90;;;;;;5002776;28;20233;-63
2022/05/15 03:54:53;;;;;;;5.25;1.88;;;12.00;99.90;;;;;;5021802;28;20117;-63
2022/05/15 03:57:19;;;;;;;2.72;1.50;;;11.90;99.90;;;;;;5027105;28;20036;-63
2022/05/15 03:59:45;;;;;;;6.10;1.80;;;12.00;99.90;;;;;;5026945;28;20029;-63
2022/05/15 04:02:12;;;;;;;4.10;1.63;;;12.10;99.90;;;;;;5025250;28;20329;-63
2022/05/15 04:04:38;;;;;;;7.28;1.92;;;12.10;99.90;;;;;;5027069;28;20359;-63
2022/05/15 04:07:05;;;;;;;5.80;1.90;;;12.20;99.90;;;;;;5009405;28;20261;-64
2022/05/15 04:09:32;;;;;;;5.25;1.77;;;12.20;99.90;;;;;;5025929;28;20229;-63
2022/05/15 04:11:58;;;;;;;5.43;1.63;;;12.20;99.90;;;;;;5025943;28;20059;-63
2022/05/15 04:14:24;;;;;;;2.65;1.60;;;12.20;99.90;;;;;;5026914;28;20025;-63
2022/05/15 04:16:50;;;;;;;3.80;1.50;;;12.30;99.90;;;;;;5026754;28;20305;-63
2022/05/15 04:19:16;;;;;;;3.20;1.52;;;12.40;99.90;;;;;;5009211;28;20064;-64
2022/05/15 04:21:42;;;;;;;7.15;1.63;;;12.40;99.90;;;;;;5025563;28;20022;-63
2022/05/15 04:24:11;;;;;;;5.25;1.73;;;12.40;99.90;;;;;;5026618;28;20338;-63
2022/05/15 04:26:37;;;;;;;6.82;1.80;;;12.50;99.90;;;;;;5026729;28;20108;-63
2022/05/15 04:29:04;;;;;;;8.25;1.80;;;12.40;99.90;;;;;;5025700;28;20018;-63
2022/05/15 04:31:30;;;;;;;3.83;1.55;;;12.40;99.90;;;;;;5025958;28;20121;-63
2022/05/15 04:33:56;;;;;;;6.70;1.88;;;12.40;99.90;;;;;;5026538;28;20025;-63
2022/05/15 04:36:23;;;;;;;8.30;2.20;;;12.40;99.90;;;;;;5025449;28;20069;-63
2022/05/15 04:38:49;;;;;;;11.45;2.45;;;12.40;99.90;;;;;;5025088;28;20095;-63
2022/05/15 04:41:15;;;;;;;6.97;2.38;;;12.30;99.90;;;;;;5008551;28;20018;-63
2022/05/15 04:43:40;;;;;;;12.45;2.95;;;12.30;99.90;;;;;;5023691;28;20022;-63
2022/05/15 04:46:07;;;;;;;8.13;2.92;;;12.30;99.90;;;;;;5025845;28;20064;-63
2022/05/15 04:48:34;;;;;;;10.43;2.88;;;12.40;99.90;;;;;;5025169;28;20022;-63
2022/05/15 04:51:00;;;;;;;9.23;3.35;;;12.50;99.90;;;;;;5026122;28;20022;-63
2022/05/15 04:53:27;;;;;;;8.50;2.70;;;12.60;99.90;;;;;;5026112;28;20049;-63
2022/05/15 04:55:53;;;;;;;11.90;3.20;;;12.60;99.90;;;;;;5026090;28;20026;-64
2022/05/15 04:58:19;;;;;;;8.43;3.22;;;12.60;99.90;;;;;;5025998;28;20064;-64
2022/05/15 05:00:45;;;;;;;9.55;3.15;;;12.60;99.90;;;;;;5025237;28;20220;-63
2022/05/15 05:03:11;;;;;;;12.23;3.90;;;12.60;99.90;;;;;;5025811;28;20025;-64
2022/05/15 05:05:37;;;;;;;8.45;3.47;;;12.60;99.90;;;;;;5018139;28;20237;-63
2022/05/15 05:08:05;;;;;;;10.05;3.70;;;12.70;99.90;;;;;;5005643;28;20026;-63
2022/05/15 05:10:30;;;;;;;10.98;3.55;;;12.60;99.90;;;;;;4989128;28;20027;-63
2022/05/15 05:12:56;;;;;;;7.50;3.70;;;12.50;99.90;;;;;;5006017;28;20045;-64
2022/05/15 05:15:22;;;;;;;10.73;4.45;;;12.60;99.90;;;;;;5006321;28;20022;-64
2022/05/15 05:17:48;;;;;;;13.40;4.18;;;12.60;99.90;;;;;;4988768;28;20022;-64
2022/05/15 05:20:14;;;;;;;10.75;4.22;;;12.60;99.90;;;;;;5004475;28;20408;-64
2022/05/15 05:22:40;;;;;;;10.68;4.25;;;12.60;99.90;;;;;;5004857;28;20034;-64
2022/05/15 05:25:06;;;;;;;10.52;4.05;;;12.70;99.90;;;;;;4988665;28;20281;-64
2022/05/15 05:27:32;;;;;;;15.07;4.65;;;12.80;99.90;;;;;;5004858;28;20034;-64
2022/05/15 05:29:58;;;;;;;8.82;3.90;;;12.90;99.90;;;;;;5005974;28;20305;-64
2022/05/15 05:32:24;;;;;;;10.88;4.43;;;12.90;99.90;;;;;;5005170;28;20050;-63
2022/05/15 05:34:50;;;;;;;9.35;4.07;;;12.90;99.90;;;;;;4988403;28;20029;-64
2022/05/15 05:37:17;;;;;;;6.40;3.95;;;12.90;99.90;;;;;;5004788;28;20022;-64
2022/05/15 05:39:44;;;;;;;10.50;3.78;;;12.90;99.90;;;;;;5005653;28;20038;-64
2022/05/15 05:42:10;;;;;;;9.10;3.70;;;12.90;99.90;;;;;;5004378;28;20073;-64
2022/05/15 05:44:36;;;;;;;10.38;3.63;;;12.90;99.90;;;;;;5004234;28;20209;-64
2022/05/15 05:47:01;;;;;;;11.85;4.10;;;13.00;99.90;;;;;;5014340;28;20022;-64
2022/05/15 05:49:27;;;;;;;12.10;4.18;;;13.00;99.90;;;;;;5024156;28;20036;-64
2022/05/15 05:51:53;;;;;;;10.85;4.07;;;13.10;99.90;;;;;;5007566;28;20029;-64
2022/05/15 05:54:18;;;;;;;11.52;4.40;;;13.20;99.90;;;;;;5025007;28;20297;-64
2022/05/15 05:56:44;;;;;;;10.35;3.67;;;13.40;99.90;;;;;;4991316;28;20033;-64
2022/05/15 05:59:10;;;;;;;9.40;4.22;;;13.30;99.90;;;;;;5025019;28;20116;-64
2022/05/15 06:01:35;;;;;;;13.00;3.90;;;13.40;99.90;;;;;;5024204;28;20030;-64
2022/05/15 06:06:46;;;;;;;9.48;3.63;;;13.50;99.90;;;;;;5010142;28;20022;-64
2022/05/15 06:09:12;;;;;;;14.75;3.90;;;13.80;99.90;;;;;;5023747;28;20033;-64
2022/05/15 06:11:38;;;;;;;11.77;4.22;;;13.90;99.90;;;;;;5007164;28;20033;-64
2022/05/15 06:14:03;;;;;;;11.02;4.05;;;14.00;99.90;;;;;;5007185;28;20022;-64
2022/05/15 06:16:31;;;;;;;12.98;3.85;;;14.00;99.90;;;;;;5024540;28;20083;-64
2022/05/15 06:18:58;;;;;;;12.05;4.35;;;14.10;99.90;;;;;;5023653;28;20038;-64
2022/05/15 06:21:24;;;;;;;9.70;4.00;;;14.10;99.90;;;;;;5023355;28;20057;-64
2022/05/15 06:23:49;;;;;;;13.52;4.43;;;14.10;99.90;;;;;;5023289;28;20044;-64
2022/05/15 06:26:15;;;;;;;12.43;4.72;;;14.20;99.90;;;;;;5023435;28;20049;-64
2022/05/15 06:28:41;;;;;;;16.58;5.05;;;14.30;99.90;;;;;;5024781;28;20103;-64
2022/05/15 06:31:06;;;;;;;11.23;4.25;;;14.40;99.90;;;;;;5023597;28;20041;-64
2022/05/15 06:33:32;;;;;;;11.77;4.75;;;14.40;99.90;;;;;;5023125;28;20022;-64
2022/05/15 06:35:58;;;;;;;8.93;4.50;;;14.40;99.90;;;;;;5023204;28;20029;-64
2022/05/15 06:38:25;;;;;;;16.80;4.97;;;14.40;99.90;;;;;;5023124;28;20145;-64
2022/05/15 06:40:51;;;;;;;11.60;4.00;;;14.60;99.90;;;;;;5024734;28;20053;-64
2022/05/15 06:43:17;;;;;;;14.50;4.75;;;14.70;99.90;;;;;;5023965;28;20026;-64
2022/05/15 06:45:42;;;;;;;11.85;4.30;;;14.70;99.90;;;;;;5021523;28;20189;-64
2022/05/15 06:48:08;;;;;;;8.88;4.20;;;14.80;99.90;;;;;;5023927;28;20359;-64
2022/05/15 06:50:34;;;;;;;11.85;4.50;;;14.70;99.90;;;;;;5006713;28;20427;-64
2022/05/15 06:53:00;;;;;;;9.73;4.30;;;14.80;99.90;;;;;;5023835;28;20033;-64
2022/05/15 06:55:26;;;;;;;14.02;4.65;;;14.80;99.90;;;;;;5024216;28;20029;-64
2022/05/15 06:57:52;;;;;;;13.82;4.22;;;14.80;99.90;;;;;;5022558;28;20058;-64
2022/05/15 07:00:27;;;;;;;7.90;4.47;;;14.80;99.90;;;;;;5022406;28;20041;-64
2022/05/15 07:02:53;;;;;;;14.05;4.13;;;14.80;99.90;;;;;;5023821;28;20021;-64
2022/05/15 07:05:23;;;;;;;8.60;4.55;;;14.70;99.90;;;;;;5006347;28;20313;-64
2022/05/15 07:07:51;;;;;;;10.88;4.10;;;14.60;99.90;;;;;;5023962;28;20208;-64
2022/05/15 07:10:18;;;;;;;17.08;5.28;;;14.60;99.90;;;;;;5023964;28;20025;-64
2022/05/15 07:12:43;;;;;;;13.75;5.63;;;14.60;99.90;;;;;;5023639;28;20283;-64
2022/05/15 07:15:09;;;;;;;13.13;4.75;;;14.70;99.90;;;;;;5022489;28;20030;-64
2022/05/15 07:17:35;;;;;;;10.68;4.47;;;14.70;99.90;;;;;;5006441;28;20018;-64
2022/05/15 07:20:03;;;;;;;14.15;4.60;;;14.70;99.90;;;;;;5023774;28;20313;-64
2022/05/15 07:22:29;;;;;;;13.05;4.85;;;14.80;99.90;;;;;;5023548;28;20101;-64
2022/05/15 07:24:55;;;;;;;12.98;4.78;;;14.80;99.90;;;;;;5023897;28;20033;-64
2022/05/15 07:27:21;;;;;;;14.25;4.78;;;14.80;99.90;;;;;;5023900;28;20022;-64
2022/05/15 07:29:47;;;;;;;11.23;4.63;;;14.90;99.90;;;;;;5024420;28;20037;-64
2022/05/15 07:32:12;;;;;;;16.48;4.78;;;15.00;99.90;;;;;;5026284;28;20022;-64
2022/05/15 07:34:39;;;;;;;14.25;4.50;;;15.10;99.90;;;;;;5009837;28;20041;-64
2022/05/15 07:37:05;;;;;;;12.77;4.72;;;15.20;99.90;;;;;;5027707;28;20205;-64
2022/05/15 07:39:31;;;;;;;10.63;4.22;;;15.20;99.90;;;;;;5027590;28;20085;-64
2022/05/15 07:41:57;;;;;;;9.02;4.28;;;15.30;99.90;;;;;;5026350;28;20018;-64
2022/05/15 07:44:24;;;;;;;13.43;4.40;;;15.40;99.90;;;;;;5027312;28;20030;-64
2022/05/15 07:46:50;;;;;;;12.27;4.53;;;15.50;99.90;;;;;;5023933;28;20022;-64
2022/05/15 07:49:16;;;;;;;12.07;4.88;;;15.50;99.90;;;;;;5027352;28;20056;-64
2022/05/15 07:51:44;;;;;;;8.77;4.05;;;15.60;99.90;;;;;;5026222;28;20026;-64
2022/05/15 07:54:13;;;;;;;11.30;4.45;;;15.70;99.90;;;;;;5026188;28;20041;-64
2022/05/15 07:56:39;;;;;;;9.85;4.57;;;15.80;99.90;;;;;;5009361;28;20228;-64
2022/05/15 07:59:05;;;;;;;12.23;4.30;;;15.90;99.90;;;;;;5009586;28;20050;-64
2022/05/15 08:01:30;;;;;;;14.38;4.45;;;15.90;99.90;;;;;;5026767;28;20025;-65
2022/05/15 08:03:56;;;;;;;13.82;4.40;;;16.00;99.90;;;;;;5025370;28;20100;-64
2022/05/15 08:09:09;;;;;;;13.05;4.25;;;16.10;99.90;;;;;;5026205;28;20065;-64
2022/05/15 08:11:36;;;;;;;10.38;3.80;;;16.30;99.90;;;;;;5026636;28;20085;-64
2022/05/15 08:14:04;;;;;;;11.00;4.38;;;16.40;99.90;;;;;;5026824;28;20017;-64
2022/05/15 08:16:31;;;;;;;12.10;3.70;;;16.60;99.90;;;;;;5026669;28;20026;-64
2022/05/15 08:24:28;;;;;;;11.73;3.72;;;16.90;99.90;;;;;;5011996;28;20045;-64
2022/05/15 08:26:54;;;;;;;10.07;3.30;;;17.10;99.90;;;;;;5026821;28;20029;-64
2022/05/15 08:29:25;;;;;;;7.35;2.95;;;17.20;99.00;;;;;;5025479;28;20022;-64
2022/05/15 08:31:50;;;;;;;14.02;4.07;;;17.40;99.60;;;;;;5025304;28;20312;-64
2022/05/15 08:34:16;;;;;;;9.45;3.17;;;17.50;97.80;;;;;;5008845;28;20030;-65
2022/05/15 08:36:44;;;;;;;6.10;2.80;;;17.50;97.80;;;;;;5026605;28;20017;-65
2022/05/15 08:39:11;;;;;;;11.82;3.35;;;17.70;98.10;;;;;;5025424;28;20112;-64
2022/05/15 08:41:49;;;;;;;6.78;3.05;;;17.70;97.60;;;;;;5024359;28;20018;-64
2022/05/15 08:44:21;;;;;;;7.63;3.08;;;17.80;98.10;;;;;;5024878;28;20305;-65
2022/05/15 08:47:16;;;;;;;9.13;3.00;;;18.00;97.50;;;;;;5023480;28;20018;-65
2022/05/15 08:49:45;;;;;;;7.50;3.20;;;17.70;97.40;;;;;;5012594;28;20025;-65
2022/05/15 08:52:32;;;;;;;8.65;3.60;;;17.50;97.40;;;;;;5024936;28;20017;-66
2022/05/15 08:55:06;;;;;;;11.63;3.70;;;17.50;98.00;;;;;;5010914;28;20026;-64
2022/05/15 08:57:53;;;;;;;10.20;3.50;;;17.60;98.40;;;;;;5026350;28;20092;-64
2022/05/15 09:00:42;;;;;;;10.20;4.20;;;17.60;98.20;;;;;;5024324;28;20049;-64
2022/05/15 09:03:16;;;;;;;12.45;3.67;;;17.70;98.00;;;;;;4995197;28;20021;-65
2022/05/15 09:06:06;;;;;;;9.35;3.53;;;17.70;98.00;;;;;;5025780;28;20029;-64
2022/05/15 09:09:12;;;;;;;9.18;3.45;;;17.70;97.80;;;;;;5025040;28;20030;-65
2022/05/15 09:12:01;;;;;;;12.60;3.55;;;17.70;97.70;;;;;;5010913;28;20021;-64
2022/05/15 09:15:07;;;;;;;8.85;3.75;;;17.60;97.90;;;;;;5024637;28;20030;-64
2022/05/15 09:17:44;;;;;;;10.23;3.70;;;17.80;98.40;;;;;;5024899;28;20025;-64
2022/05/15 09:20:27;;;;;;;10.40;3.65;;;17.90;97.80;;;;;;5024625;28;20030;-65
2022/05/15 09:23:22;;;;;;;8.48;3.30;;;18.10;97.90;;;;;;5024439;28;20021;-64
2022/05/15 09:25:57;;;;;;;8.10;3.55;;;18.30;97.50;;;;;;5024313;28;20036;-64
2022/05/15 09:28:26;;;;;;;14.70;4.10;;;18.50;97.00;;;;;;5025654;28;20021;-64
2022/05/15 09:30:55;;;;;;;9.98;3.55;;;18.60;97.00;;;;;;5024212;28;20018;-64
2022/05/15 09:33:38;;;;;;;11.77;3.67;;;18.50;96.60;;;;;;5024372;28;20064;-64
2022/05/15 09:36:40;;;;;;;12.25;4.10;;;18.30;96.40;;;;;;5025778;28;20045;-64
2022/05/15 09:39:25;;;;;;;11.10;3.40;;;18.30;97.10;;;;;;5013185;28;20068;-64
2022/05/15 09:45:22;;;;;;;10.23;3.47;;;18.40;96.40;;;;;;5010923;28;20109;-65
2022/05/15 09:48:03;;;;;;;5.88;2.90;;;18.60;96.60;;;;;;5006931;28;20476;-65
2022/05/15 09:50:56;;;;;;;11.27;2.85;;;18.90;95.70;;;;;;5026274;28;20029;-65
2022/05/15 09:53:31;;;;;;;11.50;3.13;;;19.00;95.60;;;;;;5012384;28;20022;-65
2022/05/15 09:56:00;;;;;;;8.52;3.15;;;19.20;95.90;;;;;;5010231;28;20037;-65
2022/05/15 09:58:35;;;;;;;13.43;3.15;;;19.20;95.10;;;;;;5026934;28;20124;-65
2022/05/15 10:01:23;;;;;;;9.48;3.47;;;19.40;94.80;;;;;;5034648;28;20339;-66
2022/05/15 10:03:52;;;;;;;8.10;3.00;;;19.40;95.10;;;;;;5035885;28;20301;-66
2022/05/15 10:06:22;;;;;;;8.18;3.38;;;19.60;95.20;;;;;;5000470;28;20018;-65
2022/05/15 10:09:06;;;;;;;9.90;3.42;;;19.60;94.90;;;;;;5017318;28;20033;-65
2022/05/15 10:11:33;;;;;;;12.70;3.63;;;19.60;94.60;;;;;;5002093;28;20022;-65
2022/05/15 10:14:01;;;;;;;10.35;3.53;;;19.40;94.30;;;;;;5018053;28;20037;-65
2022/05/15 10:16:30;;;;;;;12.13;4.25;;;19.20;94.70;;;;;;5019187;28;20041;-65
2022/05/15 10:19:20;;;;;;;10.68;4.00;;;19.10;95.00;;;;;;5018314;28;20153;-65
2022/05/15 10:21:50;;;;;;;7.97;3.88;;;19.30;95.30;;;;;;5009146;28;20049;-66
2022/05/15 10:24:30;;;;;;;14.05;3.63;;;19.40;95.50;;;;;;5007219;28;20030;-65
2022/05/15 10:27:15;;;;;;;9.68;3.75;;;19.40;95.30;;;;;;5006366;28;20105;-65
2022/05/15 10:29:55;;;;;;;11.25;4.00;;;19.30;95.50;;;;;;5005397;28;20034;-66
2022/05/15 10:32:42;;;;;;;11.25;3.70;;;19.20;95.60;;;;;;5004276;28;20106;-66
2022/05/15 10:35:13;;;;;;;13.43;4.10;;;19.00;96.10;;;;;;5004419;28;20048;-65
2022/05/15 10:38:01;;;;;;;13.48;3.70;;;18.90;95.50;;;;;;5003921;28;20050;-65
2022/05/15 10:40:51;;;;;;;9.38;3.17;;;18.80;95.20;;;;;;5005221;28;20030;-64
2022/05/15 10:43:58;;;;;;;10.50;3.22;;;18.90;95.80;;;;;;5003519;28;20309;-63
2022/05/15 10:46:46;;;;;;;10.60;3.60;;;18.80;95.80;;;;;;5007623;28;20252;-66
2022/05/15 10:49:27;;;;;;;9.07;3.72;;;18.80;96.40;;;;;;5021755;28;20025;-64
2022/05/15 10:52:33;;;;;;;8.30;4.28;;;18.80;97.10;;;;;;5024272;28;20021;-66
2022/05/15 10:58:51;;;;;;;12.90;4.82;;;18.20;98.00;;;;;;5011718;28;20284;-64
2022/05/15 11:01:29;;;;;;;8.55;4.45;;;17.90;99.60;;;;;;5023013;28;20313;-65
2022/05/15 11:04:25;;;;;;;12.10;4.57;;;17.70;99.90;;;;;;5023833;28;20018;-65
2022/05/15 11:07:03;;;;;;;11.77;4.88;;;17.90;99.90;;;;;;4991001;28;20018;-65
2022/05/15 11:09:55;;;;;;;11.18;5.38;;;18.10;99.90;;;;;;5003342;28;20252;-65
2022/05/15 11:12:56;;;;;;;12.85;5.50;;;18.30;99.90;;;;;;4989656;28;20022;-64
2022/05/15 11:15:47;;;;;;;13.02;5.90;;;18.50;99.90;;;;;;5003247;28;20294;-66
2022/05/15 11:18:40;;;;;;;10.48;4.55;;;18.70;99.90;;;;;;4990057;28;20018;-65
2022/05/15 11:21:18;;;;;;;13.48;4.93;;;18.60;99.80;;;;;;4986647;28;20034;-65
2022/05/15 11:24:01;;;;;;;11.10;5.18;;;18.70;99.90;;;;;;4986708;28;20035;-65
2022/05/15 11:26:37;;;;;;;16.42;6.07;;;18.60;99.90;;;;;;4986726;28;20022;-66
2022/05/15 11:29:09;;;;;;;13.30;5.15;;;18.70;99.90;;;;;;5002918;28;20031;-66
2022/05/15 11:31:38;;;;;;;10.82;4.82;;;18.80;99.50;;;;;;5002680;28;20053;-66
2022/05/15 11:34:06;;;;;;;10.73;4.72;;;18.70;99.80;;;;;;5002671;28;20030;-66
2022/05/15 11:36:36;;;;;;;12.98;4.72;;;18.80;99.40;;;;;;5002858;28;20026;-66
2022/05/15 11:39:06;;;;;;;12.75;4.78;;;19.00;99.50;;;;;;5003042;28;20049;-65
2022/05/15 11:42:17;;;;;;;14.07;4.75;;;19.00;99.70;;;;;;4987059;28;20089;-65
2022/05/15 11:44:46;;;;;;;13.73;4.80;;;19.30;99.00;;;;;;4991469;28;20029;-65
2022/05/15 11:47:25;;;;;;;10.07;4.70;;;19.50;98.80;;;;;;5014204;28;20045;-66
2022/05/15 11:50:19;;;;;;;16.75;5.32;;;19.50;98.60;;;;;;5020918;28;20088;-65
2022/05/15 11:53:07;;;;;;;9.18;4.50;;;19.40;98.30;;;;;;5022574;28;20022;-64
2022/05/15 11:55:49;;;;;;;11.27;4.30;;;19.30;98.70;;;;;;5009198;28;20024;-65
2022/05/15 11:58:36;;;;;;;10.75;4.63;;;19.10;98.70;;;;;;5021817;28;20260;-65
2022/05/15 12:01:25;;;;;;;11.20;5.03;;;18.90;99.30;;;;;;5023019;28;20021;-66
2022/05/15 12:03:55;;;;;;;8.52;4.80;;;18.70;99.80;;;;;;5008526;28;20321;-66
2022/05/15 12:06:29;;;;;;;9.60;4.75;;;18.70;99.50;;;;;;5006255;28;20089;-65
2022/05/15 12:09:35;;;;;;;11.50;4.32;;;18.60;99.90;;;;;;5022214;28;20072;-65
2022/05/15 12:12:34;;;;;;;11.82;4.18;;;18.60;99.70;;;;;;5022629;28;20025;-64
2022/05/15 12:15:27;;;;;;;9.27;3.70;;;18.50;99.50;;;;;;5010457;28;20024;-63
2022/05/15 12:17:59;;;;;;;6.93;3.20;;;18.40;98.90;;;;;;5026100;28;20289;-65
2022/05/15 12:20:36;;;;;;;;;;;18.40;99.20;;;;;;5027167;28;20081;-65
2022/05/15 12:23:23;;;;;;;7.40;3.42;;;18.30;98.90;;;;;;5026689;28;19921;-65
2022/05/15 12:25:58;;;;;;;6.05;3.35;;;18.20;99.80;;;;;;5012055;28;20068;-66
2022/05/15 12:28:58;;;;;;;9.73;4.82;;;18.10;99.90;;;;;;5025070;28;20335;-64
2022/05/15 12:31:34;;;;;;;8.85;4.13;;;18.00;99.90;;;;;;5025290;28;20100;-65
2022/05/15 12:34:26;;;;;;;7.50;3.75;;;18.00;99.90;;;;;;5025361;28;20149;-65
2022/05/15 12:36:56;;;;;;;9.00;3.58;;;17.90;99.90;;;;;;5012799;28;20025;-65
2022/05/15 12:39:26;;;;;;;12.18;4.22;;;17.80;99.90;;;;;;5008632;28;20030;-66
2022/05/15 12:41:52;;;;;;;8.63;3.60;;;17.80;99.90;;;;;;5009328;28;20021;-65
2022/05/15 12:44:36;;;;;;;8.80;4.32;;;17.80;99.90;;;;;;5025130;28;20186;-66
2022/05/15 12:47:05;;;;;;;11.60;4.30;;;17.70;99.90;;;;;;5024798;28;20332;-65
2022/05/15 12:49:35;;;;;;;8.95;4.32;;;17.50;99.90;;;;;;5023400;28;20044;-65
2022/05/15 12:52:15;;;;;;;11.52;4.88;;;17.60;99.90;;;;;;5025320;28;20017;-65
2022/05/15 12:54:43;;;;;;;11.80;4.13;;;17.70;99.90;;;;;;5025924;28;20301;-64
2022/05/15 12:57:14;;;;;;;8.10;4.03;;;17.60;99.90;;;;;;5026209;28;20289;-64
2022/05/15 12:59:43;;;;;;;7.45;4.18;;;17.70;99.90;;;;;;5025844;28;20101;-65
2022/05/15 13:02:34;;;;;;;11.73;5.90;;;17.70;99.90;;;;;;5024691;28;20093;-65
2022/05/15 13:05:03;;;;;;;10.25;4.35;;;17.80;99.90;;;;;;5025196;28;20081;-65
2022/05/15 13:07:36;;;;;;;11.75;5.40;;;17.80;99.90;;;;;;5024922;28;20021;-64
2022/05/15 13:10:07;;;;;;;9.55;4.45;;;18.00;99.90;;;;;;5024623;28;20022;-65
2022/05/15 13:12:34;;;;;;;;;;;18.10;99.90;;;;;;5024846;28;20022;-65
2022/05/15 13:15:01;;;;;;;9.45;4.10;;;18.40;99.90;;;;;;5024551;28;19902;-64
2022/05/15 13:17:37;;;;;;;14.52;4.20;;;18.50;99.90;;;;;;5024627;28;20209;-64
2022/05/15 13:20:15;;;;;;;11.98;4.40;;;18.50;99.90;;;;;;5024303;28;20030;-65
2022/05/15 13:22:41;;;;;;;9.90;4.65;;;18.70;99.90;;;;;;5025430;28;20060;-64
2022/05/15 13:25:29;;;;;;;13.15;4.35;;;18.60;99.90;;;;;;5008170;28;20036;-65